createdAt,value
2017-04-09T00:00:17.438Z,0
2017-04-09T00:00:58.317Z,0
2017-04-09T00:01:39.204Z,0
2017-04-09T00:02:20.086Z,0
2017-04-09T00:03:00.959Z,0
2017-04-09T00:03:41.845Z,0
2017-04-09T00:04:22.726Z,0
2017-04-09T00:05:03.613Z,0
2017-04-09T00:05:44.496Z,0
2017-04-09T00:06:25.378Z,0
2017-04-09T00:07:06.262Z,0
2017-04-09T00:07:47.149Z,0
2017-04-09T00:08:28.033Z,0
2017-04-09T00:09:08.917Z,0
2017-04-09T00:09:49.805Z,0
2017-04-09T00:10:30.687Z,0
2017-04-09T00:11:11.571Z,0
2017-04-09T00:11:52.469Z,0
2017-04-09T00:12:33.351Z,0
2017-04-09T00:13:14.233Z,0
2017-04-09T00:13:55.116Z,0
2017-04-09T00:14:35.997Z,0
2017-04-09T00:15:16.881Z,0
2017-04-09T00:15:57.758Z,0
2017-04-09T00:16:38.639Z,0
2017-04-09T00:17:19.523Z,0
2017-04-09T00:18:00.410Z,0
2017-04-09T00:18:41.291Z,0
2017-04-09T00:19:22.176Z,0
2017-04-09T00:20:03.056Z,0
2017-04-09T00:20:43.954Z,0
2017-04-09T00:21:24.834Z,0
2017-04-09T00:22:05.729Z,0
2017-04-09T00:22:46.611Z,0
2017-04-09T00:23:27.494Z,0
2017-04-09T00:24:08.376Z,0
2017-04-09T00:24:49.260Z,0
2017-04-09T00:25:30.144Z,0
2017-04-09T00:26:11.027Z,0
2017-04-09T00:26:51.909Z,0
2017-04-09T00:27:32.794Z,0
2017-04-09T00:28:13.675Z,0
2017-04-09T00:28:54.555Z,0
2017-04-09T00:29:35.443Z,0
2017-04-09T00:30:16.328Z,0
2017-04-09T00:30:57.216Z,0
2017-04-09T00:31:38.093Z,0
2017-04-09T00:32:18.981Z,0
2017-04-09T00:32:59.862Z,0
2017-04-09T00:33:40.746Z,0
2017-04-09T00:34:21.630Z,0
2017-04-09T00:35:02.514Z,0
2017-04-09T00:35:43.397Z,0
2017-04-09T00:36:24.282Z,0
2017-04-09T00:37:05.174Z,0
2017-04-09T00:37:46.054Z,0
2017-04-09T00:38:26.935Z,0
2017-04-09T00:39:07.818Z,0
2017-04-09T00:39:48.703Z,0
2017-04-09T00:40:29.589Z,0
2017-04-09T00:41:10.471Z,0
2017-04-09T00:41:51.351Z,0
2017-04-09T00:42:32.234Z,0
2017-04-09T00:43:13.110Z,0
2017-04-09T00:43:54.015Z,0
2017-04-09T00:44:34.890Z,0
2017-04-09T00:45:15.777Z,0
2017-04-09T00:45:56.658Z,0
2017-04-09T00:46:37.545Z,0
2017-04-09T00:47:18.430Z,0
2017-04-09T00:47:59.312Z,0
2017-04-09T00:48:40.201Z,0
2017-04-09T00:49:21.090Z,0
2017-04-09T00:50:01.978Z,0
2017-04-09T00:50:42.861Z,0
2017-04-09T00:51:23.743Z,0
2017-04-09T00:52:04.626Z,0
2017-04-09T00:52:45.509Z,0
2017-04-09T00:53:26.389Z,0
2017-04-09T00:54:07.272Z,0
2017-04-09T00:54:48.151Z,0
2017-04-09T00:55:29.040Z,0
2017-04-09T00:56:09.930Z,0
2017-04-09T00:56:50.816Z,0
2017-04-09T00:57:31.695Z,0
2017-04-09T00:58:12.577Z,0
2017-04-09T00:58:53.456Z,0
2017-04-09T00:59:34.346Z,0
2017-04-09T01:00:15.227Z,0
2017-04-09T01:00:56.139Z,0
2017-04-09T01:01:36.992Z,0
2017-04-09T01:02:17.876Z,0
2017-04-09T01:02:58.763Z,0
2017-04-09T01:03:39.650Z,0
2017-04-09T01:04:20.531Z,0
2017-04-09T01:05:01.413Z,0
2017-04-09T01:05:42.293Z,0
2017-04-09T01:06:23.178Z,0
2017-04-09T01:07:04.065Z,0
2017-04-09T01:07:44.953Z,0
2017-04-09T01:08:25.833Z,0
2017-04-09T01:09:06.716Z,0
2017-04-09T01:09:47.600Z,0
2017-04-09T01:10:28.493Z,0
2017-04-09T01:11:09.377Z,0
2017-04-09T01:11:50.261Z,0
2017-04-09T01:12:31.149Z,0
2017-04-09T01:13:12.049Z,0
2017-04-09T01:13:52.940Z,0
2017-04-09T01:14:33.885Z,0
2017-04-09T01:15:14.712Z,0
2017-04-09T01:15:55.595Z,0
2017-04-09T01:16:36.477Z,0
2017-04-09T01:17:17.360Z,0
2017-04-09T01:17:58.242Z,0
2017-04-09T01:18:39.130Z,0
2017-04-09T01:19:20.018Z,0
2017-04-09T01:20:00.912Z,0
2017-04-09T01:20:41.791Z,0
2017-04-09T01:21:22.678Z,0
2017-04-09T01:22:03.564Z,0
2017-04-09T01:22:44.449Z,0
2017-04-09T01:23:25.332Z,0
2017-04-09T01:24:06.218Z,0
2017-04-09T01:24:47.103Z,0
2017-04-09T01:25:27.986Z,0
2017-04-09T01:26:08.873Z,0
2017-04-09T01:26:49.752Z,0
2017-04-09T01:27:30.636Z,0
2017-04-09T01:28:11.520Z,0
2017-04-09T01:28:52.403Z,0
2017-04-09T01:29:33.283Z,0
2017-04-09T01:30:14.175Z,0
2017-04-09T01:30:55.075Z,0
2017-04-09T01:31:35.962Z,0
2017-04-09T01:32:16.846Z,0
2017-04-09T01:32:57.729Z,0
2017-04-09T01:33:38.613Z,0
2017-04-09T01:34:19.502Z,0
2017-04-09T01:35:00.394Z,0
2017-04-09T01:35:41.282Z,0
2017-04-09T01:36:22.163Z,0
2017-04-09T01:37:03.049Z,0
2017-04-09T01:37:43.961Z,0
2017-04-09T01:38:24.815Z,0
2017-04-09T01:39:05.702Z,0
2017-04-09T01:39:46.582Z,0
2017-04-09T01:40:27.487Z,0
2017-04-09T01:41:08.372Z,0
2017-04-09T01:41:49.265Z,0
2017-04-09T01:42:30.151Z,0
2017-04-09T01:43:11.025Z,0
2017-04-09T01:43:51.904Z,0
2017-04-09T01:44:32.792Z,0
2017-04-09T01:45:13.679Z,0
2017-04-09T01:45:54.585Z,0
2017-04-09T01:46:35.472Z,0
2017-04-09T01:47:16.356Z,0
2017-04-09T01:47:57.243Z,0
2017-04-09T01:48:38.130Z,0
2017-04-09T01:49:19.024Z,0
2017-04-09T01:49:59.909Z,0
2017-04-09T01:50:40.793Z,0
2017-04-09T01:51:21.675Z,0
2017-04-09T01:52:02.564Z,0
2017-04-09T01:52:43.448Z,0
2017-04-09T01:53:24.336Z,0
2017-04-09T01:54:05.219Z,0
2017-04-09T01:54:46.100Z,0
2017-04-09T01:55:26.987Z,0
2017-04-09T01:56:07.866Z,0
2017-04-09T01:56:48.753Z,0
2017-04-09T01:57:29.627Z,0
2017-04-09T01:58:10.508Z,0
2017-04-09T01:58:51.394Z,0
2017-04-09T01:59:32.278Z,0
2017-04-09T02:00:13.159Z,0
2017-04-09T02:00:54.047Z,0
2017-04-09T02:01:34.928Z,0
2017-04-09T02:02:15.813Z,0
2017-04-09T02:02:56.697Z,0
2017-04-09T02:03:37.580Z,0
2017-04-09T02:04:18.452Z,0
2017-04-09T02:04:59.342Z,0
2017-04-09T02:05:40.226Z,0
2017-04-09T02:06:21.109Z,0
2017-04-09T02:07:01.993Z,0
2017-04-09T02:07:42.873Z,0
2017-04-09T02:08:23.759Z,0
2017-04-09T02:09:04.646Z,0
2017-04-09T02:09:45.528Z,0
2017-04-09T02:11:59.728Z,0
2017-04-09T02:12:40.611Z,0
2017-04-09T02:13:21.500Z,0
2017-04-09T02:14:02.387Z,0
2017-04-09T02:14:43.274Z,0
2017-04-09T02:15:24.156Z,0
2017-04-09T02:16:05.047Z,0
2017-04-09T02:16:45.931Z,0
2017-04-09T02:17:26.819Z,0
2017-04-09T02:18:07.694Z,0
2017-04-09T02:18:48.582Z,0
2017-04-09T02:19:29.468Z,0
2017-04-09T02:20:10.350Z,0
2017-04-09T02:20:51.236Z,0
2017-04-09T02:21:32.119Z,0
2017-04-09T02:22:13.001Z,0
2017-04-09T02:22:53.888Z,0
2017-04-09T02:23:34.771Z,0
2017-04-09T02:24:15.657Z,0
2017-04-09T02:24:56.547Z,0
2017-04-09T02:25:37.426Z,0
2017-04-09T02:26:18.315Z,0
2017-04-09T02:26:59.203Z,0
2017-04-09T02:27:40.091Z,0
2017-04-09T02:28:20.996Z,0
2017-04-09T02:29:01.882Z,0
2017-04-09T02:29:42.761Z,0
2017-04-09T02:30:23.646Z,0
2017-04-09T02:31:04.527Z,0
2017-04-09T02:31:45.416Z,0
2017-04-09T02:32:26.332Z,0
2017-04-09T02:33:07.183Z,0
2017-04-09T02:33:48.064Z,0
2017-04-09T02:34:28.947Z,0
2017-04-09T02:35:09.832Z,0
2017-04-09T02:35:50.716Z,0
2017-04-09T02:36:31.601Z,0
2017-04-09T02:37:12.500Z,0
2017-04-09T02:37:53.387Z,0
2017-04-09T02:38:34.271Z,0
2017-04-09T02:39:15.157Z,0
2017-04-09T02:39:56.044Z,0
2017-04-09T02:40:36.922Z,0
2017-04-09T02:41:17.806Z,0
2017-04-09T02:41:58.692Z,0
2017-04-09T02:42:39.577Z,0
2017-04-09T02:43:20.460Z,0
2017-04-09T02:44:01.343Z,0
2017-04-09T02:44:42.231Z,0
2017-04-09T02:45:23.111Z,0
2017-04-09T02:46:03.990Z,0
2017-04-09T02:46:44.875Z,0
2017-04-09T02:47:25.759Z,0
2017-04-09T02:48:06.644Z,0
2017-04-09T02:48:47.524Z,0
2017-04-09T02:49:28.406Z,0
2017-04-09T02:50:09.290Z,0
2017-04-09T02:50:50.175Z,0
2017-04-09T02:51:31.057Z,0
2017-04-09T02:52:11.938Z,0
2017-04-09T02:52:52.828Z,0
2017-04-09T02:53:33.713Z,0
2017-04-09T02:54:14.591Z,0
2017-04-09T02:54:55.478Z,0
2017-04-09T02:55:36.360Z,0
2017-04-09T02:56:17.248Z,0
2017-04-09T02:56:58.132Z,0
2017-04-09T02:57:39.017Z,0
2017-04-09T02:58:19.916Z,0
2017-04-09T02:59:00.797Z,0
2017-04-09T02:59:41.681Z,0
2017-04-09T03:00:22.567Z,0
2017-04-09T03:01:03.453Z,0
2017-04-09T03:01:44.337Z,0
2017-04-09T03:02:25.221Z,0
2017-04-09T03:03:06.103Z,0
2017-04-09T03:03:46.985Z,0
2017-04-09T03:04:27.885Z,0
2017-04-09T03:05:08.773Z,0
2017-04-09T03:05:49.656Z,0
2017-04-09T03:06:30.536Z,0
2017-04-09T03:07:11.427Z,0
2017-04-09T03:07:52.312Z,0
2017-04-09T03:08:33.198Z,0
2017-04-09T03:09:14.083Z,0
2017-04-09T03:09:54.967Z,0
2017-04-09T03:10:35.881Z,0
2017-04-09T03:11:16.762Z,0
2017-04-09T03:11:57.650Z,0
2017-04-09T03:12:38.537Z,0
2017-04-09T03:13:19.424Z,0
2017-04-09T03:14:00.307Z,0
2017-04-09T03:14:41.188Z,0
2017-04-09T03:15:22.087Z,0
2017-04-09T03:16:02.981Z,0
2017-04-09T03:16:43.872Z,0
2017-04-09T03:17:24.754Z,0
2017-04-09T03:18:05.636Z,0
2017-04-09T03:18:46.540Z,0
2017-04-09T03:19:27.407Z,0
2017-04-09T03:20:08.289Z,0
2017-04-09T03:20:49.174Z,0
2017-04-09T03:21:30.058Z,0
2017-04-09T03:22:10.943Z,0
2017-04-09T03:22:51.825Z,0
2017-04-09T03:23:32.710Z,0
2017-04-09T03:24:13.593Z,0
2017-04-09T03:24:54.478Z,0
2017-04-09T03:25:35.359Z,0
2017-04-09T03:26:16.248Z,0
2017-04-09T03:26:57.141Z,0
2017-04-09T03:27:38.021Z,0
2017-04-09T03:28:18.907Z,0
2017-04-09T03:28:59.794Z,0
2017-04-09T03:29:40.682Z,0
2017-04-09T03:30:21.565Z,0
2017-04-09T03:31:02.449Z,0
2017-04-09T03:31:43.335Z,0
2017-04-09T03:32:24.218Z,0
2017-04-09T03:33:05.099Z,0
2017-04-09T03:33:45.982Z,0
2017-04-09T03:34:26.861Z,0
2017-04-09T03:35:07.742Z,0
2017-04-09T03:35:48.626Z,0
2017-04-09T03:36:29.511Z,0
2017-04-09T03:37:10.395Z,0
2017-04-09T03:37:51.284Z,0
2017-04-09T03:38:32.170Z,0
2017-04-09T03:39:13.053Z,0
2017-04-09T03:39:53.937Z,0
2017-04-09T03:40:34.823Z,0
2017-04-09T03:41:15.704Z,0
2017-04-09T03:41:56.588Z,0
2017-04-09T03:42:37.476Z,0
2017-04-09T03:43:18.356Z,0
2017-04-09T03:43:59.237Z,0
2017-04-09T03:44:40.119Z,0
2017-04-09T03:45:21.000Z,0
2017-04-09T03:46:01.880Z,0
2017-04-09T03:46:42.765Z,0
2017-04-09T03:47:23.651Z,0
2017-04-09T03:48:04.537Z,0
2017-04-09T03:48:45.417Z,0
2017-04-09T03:49:26.297Z,0
2017-04-09T03:50:07.180Z,0
2017-04-09T03:50:48.059Z,0
2017-04-09T03:51:28.944Z,0
2017-04-09T03:52:09.827Z,0
2017-04-09T03:52:50.712Z,0
2017-04-09T03:53:31.590Z,0
2017-04-09T03:54:12.475Z,0
2017-04-09T03:54:53.360Z,0
2017-04-09T03:55:34.271Z,0
2017-04-09T03:56:15.150Z,0
2017-04-09T03:56:56.035Z,0
2017-04-09T03:57:36.918Z,0
2017-04-09T03:58:17.802Z,0
2017-04-09T03:58:58.688Z,0
2017-04-09T03:59:39.570Z,0
2017-04-09T04:00:20.450Z,0
2017-04-09T04:01:01.336Z,0
2017-04-09T04:01:42.221Z,0
2017-04-09T04:02:23.103Z,0
2017-04-09T04:03:03.987Z,0
2017-04-09T04:03:44.871Z,0
2017-04-09T04:04:25.756Z,0
2017-04-09T04:05:06.640Z,0
2017-04-09T04:05:47.522Z,0
2017-04-09T04:06:28.404Z,0
2017-04-09T04:07:09.292Z,0
2017-04-09T04:07:50.176Z,0
2017-04-09T04:08:31.061Z,0
2017-04-09T04:09:11.946Z,0
2017-04-09T04:09:52.823Z,0
2017-04-09T04:10:33.710Z,0
2017-04-09T04:11:14.595Z,0
2017-04-09T04:11:55.476Z,0
2017-04-09T04:12:36.356Z,0
2017-04-09T04:13:17.234Z,0
2017-04-09T04:13:58.117Z,0
2017-04-09T04:14:39.004Z,0
2017-04-09T04:15:19.887Z,0
2017-04-09T04:16:00.773Z,0
2017-04-09T04:16:41.651Z,0
2017-04-09T04:17:22.535Z,0
2017-04-09T04:18:03.419Z,0
2017-04-09T04:18:44.304Z,0
2017-04-09T04:19:25.182Z,0
2017-04-09T04:20:06.067Z,0
2017-04-09T04:20:46.946Z,0
2017-04-09T04:21:27.832Z,0
2017-04-09T04:22:08.718Z,0
2017-04-09T04:22:49.603Z,0
2017-04-09T04:23:30.491Z,0
2017-04-09T04:24:14.686Z,0
2017-04-09T04:24:55.574Z,0
2017-04-09T04:25:36.458Z,0
2017-04-09T04:26:17.337Z,0
2017-04-09T04:26:58.219Z,0
2017-04-09T04:27:39.103Z,0
2017-04-09T04:28:19.979Z,0
2017-04-09T04:29:00.864Z,0
2017-04-09T04:29:41.748Z,0
2017-04-09T04:30:22.632Z,0
2017-04-09T04:31:03.513Z,0
2017-04-09T04:31:44.398Z,0
2017-04-09T04:32:25.282Z,5
2017-04-09T04:33:06.163Z,5
2017-04-09T04:33:47.042Z,5
2017-04-09T04:34:27.926Z,5
2017-04-09T04:35:08.806Z,5
2017-04-09T04:35:49.687Z,5
2017-04-09T04:36:30.587Z,5
2017-04-09T04:37:11.471Z,5
2017-04-09T04:37:52.361Z,5
2017-04-09T04:38:33.246Z,5
2017-04-09T04:39:14.128Z,5
2017-04-09T04:39:55.013Z,5
2017-04-09T04:40:35.895Z,5
2017-04-09T04:41:16.781Z,5
2017-04-09T04:41:57.663Z,5
2017-04-09T04:42:38.544Z,5
2017-04-09T04:43:19.437Z,5
2017-04-09T04:44:00.322Z,5
2017-04-09T04:44:41.202Z,5
2017-04-09T04:45:22.090Z,5
2017-04-09T04:46:02.989Z,10
2017-04-09T04:46:43.865Z,10
2017-04-09T04:47:24.752Z,10
2017-04-09T04:48:05.635Z,10
2017-04-09T04:48:46.517Z,10
2017-04-09T04:49:27.400Z,10
2017-04-09T04:50:08.281Z,10
2017-04-09T04:50:49.216Z,10
2017-04-09T04:51:30.104Z,10
2017-04-09T04:52:10.989Z,10
2017-04-09T04:52:51.890Z,10
2017-04-09T04:53:32.772Z,10
2017-04-09T04:54:13.651Z,10
2017-04-09T04:54:54.540Z,15
2017-04-09T04:55:35.419Z,15
2017-04-09T04:56:16.298Z,15
2017-04-09T04:56:57.184Z,15
2017-04-09T04:57:38.165Z,15
2017-04-09T04:58:19.092Z,15
2017-04-09T04:58:59.975Z,15
2017-04-09T04:59:40.862Z,15
2017-04-09T05:00:21.746Z,15
2017-04-09T05:01:02.625Z,15
2017-04-09T05:01:43.508Z,15
2017-04-09T05:02:24.395Z,15
2017-04-09T05:03:05.279Z,15
2017-04-09T05:03:46.168Z,15
2017-04-09T05:04:27.048Z,15
2017-04-09T05:05:07.931Z,15
2017-04-09T05:05:48.811Z,20
2017-04-09T05:06:29.690Z,20
2017-04-09T05:07:10.580Z,20
2017-04-09T05:07:51.463Z,20
2017-04-09T05:08:32.348Z,20
2017-04-09T05:09:13.227Z,20
2017-04-09T05:09:54.110Z,20
2017-04-09T05:10:34.991Z,20
2017-04-09T05:11:15.874Z,20
2017-04-09T05:11:56.752Z,20
2017-04-09T05:12:37.642Z,20
2017-04-09T05:13:18.532Z,20
2017-04-09T05:13:59.415Z,20
2017-04-09T05:14:40.302Z,25
2017-04-09T05:15:21.192Z,25
2017-04-09T05:16:02.076Z,25
2017-04-09T05:16:42.966Z,25
2017-04-09T05:17:23.849Z,25
2017-04-09T05:18:04.735Z,25
2017-04-09T05:18:45.615Z,25
2017-04-09T05:19:26.557Z,25
2017-04-09T05:20:07.376Z,25
2017-04-09T05:20:48.261Z,25
2017-04-09T05:21:29.145Z,30
2017-04-09T05:22:10.033Z,30
2017-04-09T05:22:50.918Z,30
2017-04-09T05:23:31.803Z,30
2017-04-09T05:24:12.693Z,30
2017-04-09T05:24:53.570Z,30
2017-04-09T05:25:34.454Z,30
2017-04-09T05:26:15.339Z,30
2017-04-09T05:26:56.223Z,30
2017-04-09T05:27:37.106Z,30
2017-04-09T05:28:17.992Z,30
2017-04-09T05:28:58.898Z,35
2017-04-09T05:29:39.780Z,35
2017-04-09T05:30:20.685Z,35
2017-04-09T05:31:01.567Z,35
2017-04-09T05:31:42.452Z,35
2017-04-09T05:32:23.336Z,35
2017-04-09T05:33:04.221Z,35
2017-04-09T05:33:45.104Z,35
2017-04-09T05:34:25.986Z,40
2017-04-09T05:35:06.870Z,40
2017-04-09T05:35:47.754Z,40
2017-04-09T05:36:28.638Z,40
2017-04-09T05:37:09.521Z,40
2017-04-09T05:37:50.404Z,40
2017-04-09T05:38:31.289Z,40
2017-04-09T05:39:12.170Z,45
2017-04-09T05:39:53.051Z,45
2017-04-09T05:40:33.940Z,45
2017-04-09T05:41:14.822Z,45
2017-04-09T05:41:55.709Z,45
2017-04-09T05:42:36.592Z,50
2017-04-09T05:43:17.475Z,50
2017-04-09T05:43:58.358Z,50
2017-04-09T05:44:39.246Z,50
2017-04-09T05:45:20.133Z,50
2017-04-09T05:46:01.010Z,55
2017-04-09T05:46:41.894Z,55
2017-04-09T05:47:22.775Z,55
2017-04-09T05:48:03.656Z,55
2017-04-09T05:48:44.537Z,55
2017-04-09T05:49:25.421Z,55
2017-04-09T05:50:06.302Z,55
2017-04-09T05:50:47.186Z,55
2017-04-09T05:51:28.071Z,60
2017-04-09T05:52:08.958Z,60
2017-04-09T05:52:49.840Z,60
2017-04-09T05:53:30.722Z,60
2017-04-09T05:54:11.602Z,65
2017-04-09T05:54:52.492Z,65
2017-04-09T05:55:33.368Z,65
2017-04-09T05:56:14.251Z,70
2017-04-09T05:56:55.136Z,70
2017-04-09T05:57:36.023Z,75
2017-04-09T05:58:16.910Z,75
2017-04-09T05:58:57.788Z,75
2017-04-09T05:59:38.671Z,80
2017-04-09T06:00:19.554Z,80
2017-04-09T06:01:00.439Z,80
2017-04-09T06:01:41.314Z,85
2017-04-09T06:02:22.193Z,85
2017-04-09T06:03:03.078Z,80
2017-04-09T06:03:43.960Z,85
2017-04-09T06:04:24.846Z,85
2017-04-09T06:05:05.726Z,85
2017-04-09T06:05:46.612Z,90
2017-04-09T06:06:27.496Z,90
2017-04-09T06:07:08.378Z,90
2017-04-09T06:07:49.268Z,90
2017-04-09T06:08:30.155Z,90
2017-04-09T06:09:11.037Z,90
2017-04-09T06:09:51.919Z,90
2017-04-09T06:10:32.804Z,95
2017-04-09T06:11:13.689Z,95
2017-04-09T06:11:54.582Z,95
2017-04-09T06:12:35.465Z,95
2017-04-09T06:13:16.353Z,100
2017-04-09T06:13:57.248Z,100
2017-04-09T06:14:38.135Z,105
2017-04-09T06:15:19.028Z,105
2017-04-09T06:15:59.902Z,105
2017-04-09T06:16:40.786Z,105
2017-04-09T06:17:21.676Z,105
2017-04-09T06:18:02.565Z,105
2017-04-09T06:18:43.448Z,105
2017-04-09T06:19:24.332Z,105
2017-04-09T06:20:05.251Z,110
2017-04-09T06:20:46.133Z,105
2017-04-09T06:21:27.022Z,105
2017-04-09T06:22:07.904Z,105
2017-04-09T06:22:48.783Z,110
2017-04-09T06:23:29.673Z,110
2017-04-09T06:24:10.552Z,110
2017-04-09T06:24:51.437Z,110
2017-04-09T06:25:32.335Z,110
2017-04-09T06:26:13.223Z,115
2017-04-09T06:26:54.105Z,120
2017-04-09T06:27:34.990Z,120
2017-04-09T06:28:15.890Z,125
2017-04-09T06:28:56.769Z,130
2017-04-09T06:29:37.655Z,135
2017-04-09T06:30:18.543Z,135
2017-04-09T06:30:59.431Z,140
2017-04-09T06:31:40.314Z,145
2017-04-09T06:32:21.202Z,150
2017-04-09T06:33:02.092Z,155
2017-04-09T06:33:42.967Z,160
2017-04-09T06:34:23.849Z,160
2017-04-09T06:35:04.735Z,175
2017-04-09T06:35:45.616Z,190
2017-04-09T06:36:26.497Z,210
2017-04-09T06:37:07.380Z,220
2017-04-09T06:37:48.266Z,230
2017-04-09T06:38:29.171Z,230
2017-04-09T06:39:10.056Z,235
2017-04-09T06:39:50.939Z,240
2017-04-09T06:40:31.827Z,240
2017-04-09T06:41:12.710Z,245
2017-04-09T06:41:53.590Z,250
2017-04-09T06:42:34.537Z,250
2017-04-09T06:43:15.425Z,250
2017-04-09T06:43:56.300Z,260
2017-04-09T06:44:37.185Z,250
2017-04-09T06:45:18.059Z,250
2017-04-09T06:45:58.958Z,240
2017-04-09T06:46:39.843Z,240
2017-04-09T06:47:20.730Z,245
2017-04-09T06:48:01.618Z,255
2017-04-09T06:48:42.503Z,260
2017-04-09T06:49:23.393Z,275
2017-04-09T06:50:04.269Z,285
2017-04-09T06:50:45.148Z,290
2017-04-09T06:51:26.032Z,300
2017-04-09T06:52:06.926Z,305
2017-04-09T06:52:47.812Z,315
2017-04-09T06:53:28.688Z,320
2017-04-09T06:54:09.580Z,330
2017-04-09T06:54:50.467Z,325
2017-04-09T06:55:31.356Z,325
2017-04-09T06:56:12.242Z,330
2017-04-09T06:56:53.124Z,340
2017-04-09T06:57:34.007Z,340
2017-04-09T06:58:14.889Z,340
2017-04-09T06:58:55.776Z,345
2017-04-09T06:59:36.708Z,350
2017-04-09T07:00:17.562Z,355
2017-04-09T07:00:58.414Z,355
2017-04-09T07:01:39.302Z,365
2017-04-09T07:02:20.188Z,375
2017-04-09T07:03:01.073Z,385
2017-04-09T07:03:41.959Z,390
2017-04-09T07:04:22.843Z,395
2017-04-09T07:05:03.729Z,395
2017-04-09T07:05:44.606Z,390
2017-04-09T07:06:25.492Z,385
2017-04-09T07:07:06.378Z,390
2017-04-09T07:07:47.268Z,395
2017-04-09T07:08:28.152Z,395
2017-04-09T07:09:09.042Z,405
2017-04-09T07:09:49.928Z,405
2017-04-09T07:10:30.815Z,405
2017-04-09T07:11:11.702Z,405
2017-04-09T07:11:52.617Z,400
2017-04-09T07:12:33.498Z,405
2017-04-09T07:13:14.386Z,410
2017-04-09T07:13:55.279Z,420
2017-04-09T07:14:36.160Z,420
2017-04-09T07:15:17.048Z,420
2017-04-09T07:15:57.934Z,420
2017-04-09T07:16:38.819Z,405
2017-04-09T07:17:19.705Z,400
2017-04-09T07:18:00.623Z,400
2017-04-09T07:18:41.480Z,400
2017-04-09T07:19:22.367Z,415
2017-04-09T07:20:03.270Z,425
2017-04-09T07:20:44.148Z,440
2017-04-09T07:21:25.035Z,445
2017-04-09T07:22:05.920Z,440
2017-04-09T07:22:46.805Z,430
2017-04-09T07:23:27.692Z,420
2017-04-09T07:24:08.578Z,420
2017-04-09T07:24:49.466Z,415
2017-04-09T07:25:30.354Z,415
2017-04-09T07:26:11.242Z,415
2017-04-09T07:26:52.135Z,430
2017-04-09T07:27:33.024Z,435
2017-04-09T07:28:13.910Z,440
2017-04-09T07:28:54.800Z,445
2017-04-09T07:29:35.688Z,445
2017-04-09T07:30:16.577Z,450
2017-04-09T07:30:57.458Z,455
2017-04-09T07:31:38.344Z,460
2017-04-09T07:32:19.244Z,455
2017-04-09T07:33:00.129Z,455
2017-04-09T07:33:41.051Z,460
2017-04-09T07:34:21.939Z,465
2017-04-09T07:35:02.828Z,470
2017-04-09T07:35:43.729Z,480
2017-04-09T07:36:24.622Z,460
2017-04-09T07:37:05.543Z,465
2017-04-09T07:37:46.428Z,460
2017-04-09T07:38:27.310Z,455
2017-04-09T07:39:08.222Z,455
2017-04-09T07:39:49.122Z,460
2017-04-09T07:40:30.023Z,470
2017-04-09T07:41:10.923Z,470
2017-04-09T07:41:51.826Z,475
2017-04-09T07:42:32.731Z,475
2017-04-09T07:43:13.651Z,470
2017-04-09T07:43:54.537Z,490
2017-04-09T07:44:35.435Z,500
2017-04-09T07:45:16.312Z,510
2017-04-09T07:45:57.195Z,525
2017-04-09T07:46:38.133Z,505
2017-04-09T07:47:19.023Z,560
2017-04-09T07:47:59.900Z,560
2017-04-09T07:48:40.795Z,535
2017-04-09T07:49:21.686Z,630
2017-04-09T07:50:02.586Z,970
2017-04-09T07:50:43.480Z,1075
2017-04-09T07:51:24.365Z,980
2017-04-09T07:52:05.261Z,765
2017-04-09T07:52:46.165Z,730
2017-04-09T07:53:27.046Z,1075
2017-04-09T07:54:07.929Z,760
2017-04-09T07:54:48.823Z,910
2017-04-09T07:55:29.744Z,710
2017-04-09T07:56:10.626Z,625
2017-04-09T07:56:51.512Z,550
2017-04-09T07:57:32.403Z,545
2017-04-09T07:58:13.295Z,595
2017-04-09T07:58:54.204Z,610
2017-04-09T07:59:35.091Z,595
2017-04-09T08:00:15.990Z,595
2017-04-09T08:00:56.890Z,600
2017-04-09T08:01:37.791Z,605
2017-04-09T08:02:18.693Z,595
2017-04-09T08:02:59.590Z,585
2017-04-09T08:03:40.484Z,595
2017-04-09T08:04:21.380Z,570
2017-04-09T08:05:02.276Z,570
2017-04-09T08:05:43.173Z,565
2017-04-09T08:06:24.078Z,535
2017-04-09T08:07:04.981Z,585
2017-04-09T08:07:45.888Z,600
2017-04-09T08:08:26.784Z,630
2017-04-09T08:09:07.676Z,655
2017-04-09T08:09:48.579Z,765
2017-04-09T08:10:29.478Z,830
2017-04-09T08:11:10.382Z,930
2017-04-09T08:11:51.294Z,1120
2017-04-09T08:12:32.200Z,1160
2017-04-09T08:13:13.080Z,1125
2017-04-09T08:13:53.976Z,1080
2017-04-09T08:14:35.643Z,835
2017-04-09T08:15:16.543Z,715
2017-04-09T08:15:57.435Z,630
2017-04-09T08:16:38.330Z,590
2017-04-09T08:17:19.224Z,620
2017-04-09T08:18:00.127Z,610
2017-04-09T08:18:41.032Z,580
2017-04-09T08:19:21.929Z,585
2017-04-09T08:20:02.824Z,590
2017-04-09T08:20:43.724Z,575
2017-04-09T08:21:24.621Z,570
2017-04-09T08:22:05.523Z,545
2017-04-09T08:22:46.422Z,545
2017-04-09T08:23:27.993Z,570
2017-04-09T08:24:08.896Z,565
2017-04-09T08:24:49.789Z,560
2017-04-09T08:25:30.688Z,560
2017-04-09T08:26:11.590Z,565
2017-04-09T08:26:52.503Z,565
2017-04-09T08:27:33.391Z,560
2017-04-09T08:28:14.287Z,560
2017-04-09T08:28:55.194Z,560
2017-04-09T08:29:36.107Z,560
2017-04-09T08:30:16.995Z,560
2017-04-09T08:30:57.887Z,555
2017-04-09T08:31:38.778Z,555
2017-04-09T08:32:19.665Z,550
2017-04-09T08:33:00.557Z,555
2017-04-09T08:33:41.444Z,560
2017-04-09T08:34:22.333Z,560
2017-04-09T08:35:03.235Z,565
2017-04-09T08:35:44.136Z,565
2017-04-09T08:36:25.062Z,575
2017-04-09T08:37:05.964Z,580
2017-04-09T08:37:46.851Z,580
2017-04-09T08:38:27.735Z,600
2017-04-09T08:39:08.620Z,615
2017-04-09T08:39:49.553Z,640
2017-04-09T08:40:30.456Z,600
2017-04-09T08:41:11.348Z,880
2017-04-09T08:41:52.245Z,1125
2017-04-09T08:42:33.145Z,1510
2017-04-09T08:43:14.055Z,1675
2017-04-09T08:43:54.942Z,1695
2017-04-09T08:44:35.840Z,1690
2017-04-09T08:45:16.739Z,1695
2017-04-09T08:45:57.627Z,1755
2017-04-09T08:46:38.534Z,1785
2017-04-09T08:47:19.428Z,1800
2017-04-09T08:48:00.350Z,1725
2017-04-09T08:48:41.245Z,1675
2017-04-09T08:49:22.157Z,1675
2017-04-09T08:50:03.039Z,1810
2017-04-09T08:50:43.960Z,1885
2017-04-09T08:51:24.827Z,1780
2017-04-09T08:52:05.731Z,500
2017-04-09T08:52:46.622Z,1290
2017-04-09T08:53:27.514Z,1325
2017-04-09T08:54:08.430Z,1470
2017-04-09T08:54:49.303Z,1670
2017-04-09T08:57:03.465Z,635
2017-04-09T08:57:44.341Z,630
2017-04-09T08:58:25.225Z,635
2017-04-09T08:59:06.103Z,640
2017-04-09T08:59:46.999Z,645
2017-04-09T09:00:27.901Z,650
2017-04-09T09:01:08.798Z,655
2017-04-09T09:01:49.697Z,670
2017-04-09T09:02:30.583Z,685
2017-04-09T09:03:11.472Z,700
2017-04-09T09:03:52.363Z,725
2017-04-09T09:04:33.265Z,725
2017-04-09T09:05:14.222Z,725
2017-04-09T09:05:55.122Z,695
2017-04-09T09:06:36.038Z,590
2017-04-09T09:07:16.928Z,575
2017-04-09T09:07:57.815Z,585
2017-04-09T09:08:38.693Z,600
2017-04-09T09:09:19.579Z,615
2017-04-09T09:10:00.471Z,720
2017-04-09T09:10:41.365Z,725
2017-04-09T09:11:22.277Z,705
2017-04-09T09:12:03.168Z,675
2017-04-09T09:12:44.058Z,720
2017-04-09T09:13:25.014Z,765
2017-04-09T09:14:05.903Z,760
2017-04-09T09:14:46.791Z,760
2017-04-09T09:15:27.707Z,770
2017-04-09T09:16:08.607Z,780
2017-04-09T09:16:49.542Z,770
2017-04-09T09:17:30.437Z,755
2017-04-09T09:18:11.335Z,735
2017-04-09T09:18:52.227Z,760
2017-04-09T09:19:33.102Z,755
2017-04-09T09:20:13.996Z,760
2017-04-09T09:20:54.875Z,690
2017-04-09T09:21:35.756Z,705
2017-04-09T09:22:16.658Z,705
2017-04-09T09:22:57.576Z,710
2017-04-09T09:23:38.468Z,820
2017-04-09T09:24:19.371Z,1195
2017-04-09T09:25:00.274Z,1655
2017-04-09T09:25:41.173Z,1925
2017-04-09T09:26:22.062Z,2160
2017-04-09T09:27:02.926Z,2090
2017-04-09T09:27:43.821Z,1895
2017-04-09T09:28:24.716Z,1815
2017-04-09T09:29:05.602Z,1875
2017-04-09T09:29:46.499Z,1980
2017-04-09T09:30:27.395Z,1850
2017-04-09T09:31:08.329Z,1775
2017-04-09T09:31:49.238Z,1830
2017-04-09T09:32:30.171Z,1870
2017-04-09T09:33:11.095Z,2025
2017-04-09T09:33:52.020Z,2090
2017-04-09T09:34:32.970Z,2165
2017-04-09T09:35:13.879Z,2190
2017-04-09T09:35:54.814Z,2225
2017-04-09T09:36:35.731Z,2160
2017-04-09T09:37:16.638Z,2060
2017-04-09T09:37:57.528Z,1790
2017-04-09T09:38:38.418Z,1850
2017-04-09T09:39:19.310Z,1895
2017-04-09T09:40:00.205Z,2035
2017-04-09T09:40:41.085Z,2125
2017-04-09T09:41:21.990Z,2070
2017-04-09T09:42:02.892Z,1735
2017-04-09T09:42:43.801Z,2155
2017-04-09T09:43:24.733Z,2165
2017-04-09T09:44:05.633Z,2160
2017-04-09T09:44:46.527Z,1855
2017-04-09T09:45:27.419Z,2205
2017-04-09T09:46:08.317Z,2095
2017-04-09T09:46:49.209Z,2160
2017-04-09T09:47:30.114Z,1955